Ramore, Canada
Current Conditions -  °F | °C
As of 11:00 PM on Thursday 18 Dec 2014 (Local Time) from CYTS Reporting Station
Ice Pellets Ice Pellets  
Wind Chill: -6°   Ceiling: Unl
Heat Index: -6°   Visibility: 15mi
Dew Point: -9°   Wind: 3mph
Humidity: 84%   Direction: 280°W
Pressure: 30.18"   Gusts: NA
Location:  48.42°N, 80.32°W
Report Text: CYTS 190400Z 28003KT 15SM IC SKC M21/M23 A3018 RMK SLP254
Loading
Personal Weather Stations






























Interactive Weather Map New forecast layout! Learn more

10-Day Weather Forecast

Advertisements
Track Severe Weather on mobile